Terminal Aerodrome Forecast
Issued by NWS Paducah, KY

Home | Current Version | Previous Version | Text Only | Print | Product List | Glossary On
Versions: 1 2 3 4 5 6 7 8 9 10 11 12 13 14 15 16 17
622
FTUS43 KPAH 270420 AAB
TAFPAH
TAF AMD
KPAH 270420Z 2704/2724 14005KT 6SM -RA SCT015 OVC050
     FM271200 15005KT P6SM SCT007 OVC015=

USA.gov is the U.S. government's official web portal to all federal, state and local government web resources and services.